Time;durP1;ratioP1;P1;durP2;ratioP2;P2;SDS_P1;SDS_P2;PMS_P1;PMS_P2;Temp;Humidity;BMP_temperature;BMP_pressure;BME280_temperature;BME280_humidity;BME280_pressure;Samples;Min_cycle;Max_cycle;Signal;HPM_P1;HPM_P2
2022/03/26 00:00:12;;;;;;;55.55;28.20;;;;;;;;;;10355155;28;20058;-69
2022/03/26 00:05:34;;;;;;;67.43;28.95;;;;;;;;;;10360526;28;20056;-69
2022/03/26 00:10:38;;;;;;;53.80;29.42;;;;;;;;;;10359300;28;20314;-68
2022/03/26 00:15:41;;;;;;;59.55;29.58;;;;;;;;;;10369135;28;20057;-68
2022/03/26 00:20:43;;;;;;;59.15;29.38;;;;;;;;;;10395394;28;20356;-69
2022/03/26 00:25:47;;;;;;;54.03;28.17;;;;;;;;;;10395535;28;20057;-69
2022/03/26 00:30:49;;;;;;;53.08;29.55;;;;;;;;;;10360280;28;20341;-69
2022/03/26 00:35:52;;;;;;;54.60;29.00;;;;;;;;;;10382479;28;20042;-69
2022/03/26 00:40:56;;;;;;;57.13;27.55;;;;;;;;;;10352177;28;20051;-68
2022/03/26 00:45:58;;;;;;;56.42;27.90;;;;;;;;;;10351596;28;20253;-68
2022/03/26 00:51:01;;;;;;;52.85;27.33;;;;;;;;;;10380758;28;20050;-68
2022/03/26 00:56:05;;;;;;;56.63;28.10;;;;;;;;;;10365426;28;20054;-68
2022/03/26 01:01:08;;;;;;;54.22;28.58;;;;;;;;;;10362739;28;20344;-69
2022/03/26 01:06:10;;;;;;;55.40;27.65;;;;;;;;;;10380941;28;20086;-69
2022/03/26 01:11:14;;;;;;;51.78;27.08;;;;;;;;;;10355642;28;20332;-70
2022/03/26 01:16:17;;;;;;;55.35;28.20;;;;;;;;;;10350726;28;20069;-69
2022/03/26 01:21:21;;;;;;;59.58;27.73;;;;;;;;;;10350835;28;20058;-69
2022/03/26 01:26:25;;;;;;;59.33;29.48;;;;;;;;;;10350130;28;20053;-69
2022/03/26 01:31:27;;;;;;;56.92;28.38;;;;;;;;;;10349865;28;20237;-69
2022/03/26 01:36:30;;;;;;;62.15;28.98;;;;;;;;;;10353291;28;20065;-68
2022/03/26 01:41:34;;;;;;;62.38;29.55;;;;;;;;;;10385985;28;20065;-68
2022/03/26 01:46:50;;;;;;;64.30;30.35;;;;;;;;;;10360770;28;20068;-68
2022/03/26 01:51:52;;;;;;;;;;;;;;;;;;10383261;28;20105;-70
2022/03/26 01:56:57;;;;;;;59.83;29.23;;;;;;;;;;10351445;28;20094;-69
2022/03/26 02:01:59;;;;;;;58.25;29.15;;;;;;;;;;10349699;28;20233;-68
2022/03/26 02:07:03;;;;;;;61.38;29.02;;;;;;;;;;10350354;28;20046;-69
2022/03/26 02:12:24;;;;;;;61.17;29.42;;;;;;;;;;10382416;28;20057;-69
2022/03/26 02:17:26;;;;;;;59.45;28.80;;;;;;;;;;10354004;28;20083;-68
2022/03/26 02:22:31;;;;;;;62.17;29.77;;;;;;;;;;10367241;28;20038;-68
2022/03/26 02:27:33;;;;;;;68.32;31.23;;;;;;;;;;10349897;28;20046;-67
2022/03/26 02:32:36;;;;;;;58.70;29.55;;;;;;;;;;10350520;28;20065;-68
2022/03/26 02:37:41;;;;;;;58.65;31.02;;;;;;;;;;10348741;28;20082;-67
2022/03/26 02:42:43;;;;;;;65.00;32.05;;;;;;;;;;10357524;28;20062;-68
2022/03/26 02:47:48;;;;;;;66.90;30.90;;;;;;;;;;10350835;28;20109;-68
2022/03/26 02:52:51;;;;;;;59.85;31.13;;;;;;;;;;10349440;28;20049;-68
2022/03/26 02:57:53;;;;;;;63.10;31.23;;;;;;;;;;10356943;28;20048;-68
2022/03/26 03:02:56;;;;;;;63.90;31.08;;;;;;;;;;10387058;28;20056;-68
2022/03/26 03:07:59;;;;;;;65.72;31.48;;;;;;;;;;10387208;28;20062;-69
2022/03/26 03:13:02;;;;;;;68.43;32.40;;;;;;;;;;10381621;28;20069;-69
2022/03/26 03:18:04;;;;;;;64.07;31.92;;;;;;;;;;10396386;28;20050;-69
2022/03/26 03:23:09;;;;;;;66.93;31.92;;;;;;;;;;10389775;28;20058;-69
2022/03/26 03:28:12;;;;;;;64.82;31.98;;;;;;;;;;10354371;28;20400;-69
2022/03/26 03:33:14;;;;;;;65.80;33.05;;;;;;;;;;10361588;28;20073;-69
2022/03/26 03:38:18;;;;;;;67.28;32.38;;;;;;;;;;10374689;28;20066;-68
2022/03/26 03:43:23;;;;;;;69.05;31.80;;;;;;;;;;10361937;28;20045;-68
2022/03/26 03:48:25;;;;;;;62.60;31.05;;;;;;;;;;10387891;28;20380;-68
2022/03/26 03:53:29;;;;;;;67.57;32.90;;;;;;;;;;10378696;28;20093;-68
2022/03/26 03:58:31;;;;;;;70.60;33.28;;;;;;;;;;10354595;28;20286;-68
2022/03/26 04:03:34;;;;;;;67.63;33.65;;;;;;;;;;10354208;28;20050;-68
2022/03/26 04:08:37;;;;;;;71.18;31.92;;;;;;;;;;10352889;28;20093;-69
2022/03/26 04:13:40;;;;;;;69.05;34.08;;;;;;;;;;10363840;28;20042;-69
2022/03/26 04:18:42;;;;;;;67.65;32.00;;;;;;;;;;10381628;28;20423;-69
2022/03/26 04:23:46;;;;;;;68.53;33.42;;;;;;;;;;10352636;28;20334;-68
2022/03/26 04:28:49;;;;;;;72.10;34.75;;;;;;;;;;10353884;28;20349;-68
2022/03/26 04:33:51;;;;;;;68.15;32.13;;;;;;;;;;10368883;28;20042;-69
2022/03/26 04:38:55;;;;;;;65.70;32.17;;;;;;;;;;10353123;28;20062;-69
2022/03/26 04:43:58;;;;;;;61.78;33.15;;;;;;;;;;10352394;28;20148;-69
2022/03/26 04:49:00;;;;;;;66.43;33.03;;;;;;;;;;10363863;28;20104;-69
2022/03/26 04:54:04;;;;;;;64.47;31.67;;;;;;;;;;10357099;28;20050;-68
2022/03/26 04:59:06;;;;;;;64.00;31.08;;;;;;;;;;10353255;28;20272;-67
2022/03/26 05:04:09;;;;;;;57.38;28.17;;;;;;;;;;10359710;28;20065;-67
2022/03/26 05:09:12;;;;;;;54.85;28.98;;;;;;;;;;10351633;28;20065;-68
2022/03/26 05:14:14;;;;;;;54.20;28.95;;;;;;;;;;10351013;28;20034;-68
2022/03/26 05:19:17;;;;;;;55.17;26.38;;;;;;;;;;10358051;28;20168;-67
2022/03/26 05:24:21;;;;;;;43.22;26.25;;;;;;;;;;10365361;28;20049;-67
2022/03/26 05:29:24;;;;;;;40.93;24.40;;;;;;;;;;10388893;28;20100;-67
2022/03/26 05:34:26;;;;;;;42.38;24.95;;;;;;;;;;10371487;28;20073;-67
2022/03/26 05:39:30;;;;;;;40.83;23.90;;;;;;;;;;10362554;28;20100;-67
2022/03/26 05:44:32;;;;;;;40.47;23.98;;;;;;;;;;10350702;28;20237;-67
2022/03/26 05:49:36;;;;;;;39.55;23.55;;;;;;;;;;10350942;28;20058;-67
2022/03/26 05:54:39;;;;;;;36.80;20.98;;;;;;;;;;10349543;28;20078;-67
2022/03/26 05:59:42;;;;;;;40.23;20.40;;;;;;;;;;10347487;28;20356;-67
2022/03/26 06:04:45;;;;;;;28.92;19.02;;;;;;;;;;10349595;28;20054;-69
2022/03/26 06:09:48;;;;;;;28.55;19.08;;;;;;;;;;10350409;28;20061;-67
2022/03/26 06:14:51;;;;;;;26.33;17.65;;;;;;;;;;10347947;28;20038;-70
2022/03/26 06:19:54;;;;;;;;;;;;;;;;;;10350556;28;20042;-68
2022/03/26 06:24:57;;;;;;;30.33;18.83;;;;;;;;;;10349564;28;20164;-66
2022/03/26 06:30:00;;;;;;;36.00;25.08;;;;;;;;;;10355233;28;20077;-70
2022/03/26 06:35:03;;;;;;;42.33;24.05;;;;;;;;;;10355187;28;20058;-69
2022/03/26 06:40:08;;;;;;;;;;;;;;;;;;10357478;28;20053;-67
2022/03/26 06:45:10;;;;;;;44.40;34.97;;;;;;;;;;10353954;28;19918;-69
2022/03/26 06:50:13;;;;;;;40.88;28.52;;;;;;;;;;10354980;28;20281;-67
2022/03/26 06:55:16;;;;;;;44.87;18.97;;;;;;;;;;10357249;28;20052;-68
2022/03/26 07:00:19;;;;;;;23.25;15.68;;;;;;;;;;10357847;28;20081;-69
2022/03/26 07:05:21;;;;;;;31.92;14.23;;;;;;;;;;10357370;28;20096;-67
2022/03/26 07:10:25;;;;;;;39.65;14.55;;;;;;;;;;10365636;28;20076;-71
2022/03/26 07:15:30;;;;;;;24.65;12.82;;;;;;;;;;10391196;28;20126;-66
2022/03/26 07:20:33;;;;;;;72.90;17.73;;;;;;;;;;10374991;28;20093;-67
2022/03/26 07:25:37;;;;;;;69.00;15.15;;;;;;;;;;10365763;28;20065;-69
2022/03/26 07:30:39;;;;;;;32.75;15.48;;;;;;;;;;10375965;28;20233;-69
2022/03/26 07:35:43;;;;;;;42.70;14.95;;;;;;;;;;10393817;28;20096;-66
2022/03/26 07:40:47;;;;;;;27.98;14.52;;;;;;;;;;10354419;28;20042;-66
2022/03/26 07:45:49;;;;;;;26.02;14.82;;;;;;;;;;10356706;28;20058;-66
2022/03/26 07:50:51;;;;;;;31.30;13.50;;;;;;;;;;10370549;28;20073;-68
2022/03/26 07:55:55;;;;;;;40.15;14.68;;;;;;;;;;10354031;28;20054;-69
2022/03/26 08:00:57;;;;;;;39.63;15.18;;;;;;;;;;10352286;28;20277;-67
2022/03/26 08:06:00;;;;;;;29.38;13.50;;;;;;;;;;10353770;28;20105;-69
2022/03/26 08:11:03;;;;;;;23.92;14.98;;;;;;;;;;10353750;28;20053;-69
2022/03/26 08:16:07;;;;;;;39.55;13.65;;;;;;;;;;10354954;28;20073;-67
2022/03/26 08:21:10;;;;;;;28.05;14.15;;;;;;;;;;10357647;28;20143;-67
2022/03/26 08:26:23;;;;;;;20.88;13.73;;;;;;;;;;10352190;28;20046;-69
2022/03/26 08:31:28;;;;;;;26.57;14.97;;;;;;;;;;10365594;28;20042;-68
2022/03/26 08:36:31;;;;;;;26.90;14.10;;;;;;;;;;10353617;28;20307;-70
2022/03/26 08:41:35;;;;;;;20.23;14.10;;;;;;;;;;10351511;28;20054;-71
2022/03/26 08:46:37;;;;;;;23.98;14.93;;;;;;;;;;10349108;28;20085;-70
2022/03/26 08:51:40;;;;;;;23.98;15.80;;;;;;;;;;10353342;28;20093;-68
2022/03/26 08:56:43;;;;;;;33.33;15.73;;;;;;;;;;10352259;28;20081;-69
2022/03/26 09:01:45;;;;;;;39.70;18.50;;;;;;;;;;10358395;28;20218;-66
2022/03/26 09:06:48;;;;;;;36.55;20.55;;;;;;;;;;10352930;28;20050;-66
2022/03/26 09:11:53;;;;;;;35.47;20.25;;;;;;;;;;10351762;28;20057;-67
2022/03/26 09:16:55;;;;;;;34.63;21.00;;;;;;;;;;10352056;28;20050;-69
2022/03/26 09:21:58;;;;;;;31.85;20.35;;;;;;;;;;10349251;28;20050;-66
2022/03/26 09:27:02;;;;;;;29.73;21.08;;;;;;;;;;10350068;28;20050;-67
2022/03/26 09:32:05;;;;;;;31.27;19.33;;;;;;;;;;10354899;28;20058;-71
2022/03/26 09:37:08;;;;;;;36.03;23.15;;;;;;;;;;10350777;28;20265;-69
2022/03/26 09:42:12;;;;;;;29.75;19.42;;;;;;;;;;10348995;28;20070;-69
2022/03/26 09:47:14;;;;;;;34.08;20.58;;;;;;;;;;10352213;28;20354;-69
2022/03/26 09:52:17;;;;;;;35.72;19.65;;;;;;;;;;10353752;28;20050;-69
2022/03/26 09:57:21;;;;;;;33.90;20.90;;;;;;;;;;10357506;28;20073;-70
2022/03/26 10:02:23;;;;;;;31.73;18.65;;;;;;;;;;10365364;28;20073;-68
2022/03/26 10:07:30;;;;;;;34.25;20.20;;;;;;;;;;10360807;28;20088;-68
2022/03/26 10:12:34;;;;;;;37.58;21.67;;;;;;;;;;10357690;28;20286;-67
2022/03/26 10:17:38;;;;;;;32.37;19.43;;;;;;;;;;10360350;28;20061;-70
2022/03/26 10:22:42;;;;;;;34.30;21.07;;;;;;;;;;10354303;28;20054;-69
2022/03/26 10:27:48;;;;;;;32.95;19.27;;;;;;;;;;10357186;28;20368;-69
2022/03/26 10:32:50;;;;;;;34.92;21.95;;;;;;;;;;10354946;28;20108;-68
2022/03/26 10:37:59;;;;;;;34.72;19.13;;;;;;;;;;10357646;28;20078;-67
2022/03/26 10:43:08;;;;;;;33.92;18.45;;;;;;;;;;10348364;28;20057;-68
2022/03/26 10:48:11;;;;;;;36.92;22.63;;;;;;;;;;10335382;28;20050;-69
2022/03/26 10:53:15;;;;;;;30.58;19.58;;;;;;;;;;10356193;28;20062;-70
2022/03/26 10:58:20;;;;;;;36.53;22.73;;;;;;;;;;10348045;28;20351;-67
2022/03/26 11:03:22;;;;;;;35.20;21.60;;;;;;;;;;10387156;28;20050;-67
2022/03/26 11:08:29;;;;;;;37.80;23.88;;;;;;;;;;10374285;28;20307;-69
2022/03/26 11:13:35;;;;;;;39.78;22.92;;;;;;;;;;10369847;28;20084;-68
2022/03/26 11:18:51;;;;;;;51.22;28.48;;;;;;;;;;10354253;28;20101;-67
2022/03/26 11:24:16;;;;;;;37.17;23.50;;;;;;;;;;10367872;28;20399;-67
2022/03/26 11:29:35;;;;;;;34.03;19.40;;;;;;;;;;10353260;28;20042;-68
2022/03/26 11:34:38;;;;;;;24.35;16.67;;;;;;;;;;10318770;28;20065;-69
2022/03/26 11:39:44;;;;;;;31.25;18.13;;;;;;;;;;10354726;28;20249;-68
2022/03/26 11:50:41;;;;;;;23.75;16.50;;;;;;;;;;10350260;28;20281;-69
2022/03/26 11:55:46;;;;;;;20.20;13.68;;;;;;;;;;10340619;28;20239;-68
2022/03/26 12:00:59;;;;;;;18.38;12.60;;;;;;;;;;10366995;28;20073;-69
2022/03/26 12:11:26;;;;;;;19.48;14.15;;;;;;;;;;10365401;28;20077;-68
2022/03/26 12:16:57;;;;;;;24.80;14.93;;;;;;;;;;10354101;28;20046;-68
2022/03/26 12:22:00;;;;;;;17.42;12.77;;;;;;;;;;10365406;28;20046;-67
2022/03/26 12:27:06;;;;;;;21.45;13.00;;;;;;;;;;10350211;28;20073;-68
2022/03/26 12:32:10;;;;;;;27.25;18.35;;;;;;;;;;10367466;28;20046;-68
2022/03/26 12:37:13;;;;;;;24.30;17.73;;;;;;;;;;10351848;28;20061;-67
2022/03/26 12:42:15;;;;;;;28.42;17.35;;;;;;;;;;10352916;28;20375;-68
2022/03/26 12:47:20;;;;;;;25.15;16.02;;;;;;;;;;10353490;28;20069;-68
2022/03/26 12:52:24;;;;;;;23.08;14.90;;;;;;;;;;10347319;28;20073;-68
2022/03/26 12:58:56;;;;;;;24.67;14.57;;;;;;;;;;10352207;28;20046;-70
2022/03/26 13:03:02;;;;;;;14.00;8.73;;;;;;;;;;10352610;28;20054;-67
2022/03/26 13:08:11;;;;;;;17.42;11.23;;;;;;;;;;10365389;28;20049;-67
2022/03/26 13:13:13;;;;;;;18.48;12.73;;;;;;;;;;10364760;28;20050;-67
2022/03/26 13:18:21;;;;;;;19.10;11.75;;;;;;;;;;10350162;28;20375;-67
2022/03/26 13:23:28;;;;;;;16.98;11.95;;;;;;;;;;10365084;28;20229;-67
2022/03/26 13:28:34;;;;;;;19.38;12.60;;;;;;;;;;10364771;28;20069;-68
2022/03/26 13:33:38;;;;;;;19.23;12.15;;;;;;;;;;10364397;28;20194;-69
2022/03/26 13:38:44;;;;;;;20.45;11.15;;;;;;;;;;10350731;28;20085;-68
2022/03/26 13:43:48;;;;;;;18.58;9.70;;;;;;;;;;10349438;28;20070;-66
2022/03/26 13:48:54;;;;;;;13.23;9.90;;;;;;;;;;10351030;28;20081;-68
2022/03/26 13:53:56;;;;;;;14.90;10.82;;;;;;;;;;10364408;28;20051;-71
2022/03/26 13:59:02;;;;;;;15.93;11.15;;;;;;;;;;10351645;28;20070;-66
2022/03/26 14:04:07;;;;;;;20.55;11.85;;;;;;;;;;10363031;28;20383;-66
2022/03/26 14:09:11;;;;;;;18.42;11.02;;;;;;;;;;10350148;28;20077;-69
2022/03/26 14:14:14;;;;;;;24.70;12.98;;;;;;;;;;10341296;28;20241;-68
2022/03/26 14:19:18;;;;;;;15.73;10.88;;;;;;;;;;10350669;28;20073;-69
2022/03/26 14:24:20;;;;;;;19.95;10.80;;;;;;;;;;10350014;28;20296;-67
2022/03/26 14:29:22;;;;;;;15.88;10.38;;;;;;;;;;10352094;28;20058;-68
2022/03/26 14:34:27;;;;;;;16.42;9.77;;;;;;;;;;10350891;28;20089;-68
2022/03/26 14:39:30;;;;;;;17.80;10.13;;;;;;;;;;10364824;28;20092;-68
2022/03/26 14:44:32;;;;;;;18.23;11.52;;;;;;;;;;10350196;28;20082;-68
2022/03/26 14:49:36;;;;;;;26.27;12.88;;;;;;;;;;10356306;28;20046;-68
2022/03/26 14:54:38;;;;;;;23.00;14.35;;;;;;;;;;10357396;28;20072;-67
2022/03/26 14:59:41;;;;;;;23.08;14.88;;;;;;;;;;10357412;28;20085;-66
2022/03/26 15:04:45;;;;;;;19.67;13.13;;;;;;;;;;10356453;28;20061;-69
2022/03/26 15:09:47;;;;;;;21.35;13.63;;;;;;;;;;10356528;28;20050;-68
2022/03/26 15:14:49;;;;;;;23.63;15.38;;;;;;;;;;10355526;28;20083;-67
2022/03/26 15:19:53;;;;;;;16.48;12.13;;;;;;;;;;10355449;28;20297;-68
2022/03/26 15:24:55;;;;;;;14.60;9.88;;;;;;;;;;10337181;28;20114;-67
2022/03/26 15:29:58;;;;;;;17.65;10.55;;;;;;;;;;10384402;28;20046;-67
2022/03/26 15:35:02;;;;;;;19.52;10.98;;;;;;;;;;10365767;28;20062;-66
2022/03/26 15:40:07;;;;;;;14.37;10.20;;;;;;;;;;10354016;28;20054;-66
2022/03/26 15:45:10;;;;;;;18.45;12.35;;;;;;;;;;10353370;28;20319;-67
2022/03/26 15:50:13;;;;;;;23.20;13.02;;;;;;;;;;10366587;28;20297;-65
2022/03/26 15:55:15;;;;;;;39.05;19.67;;;;;;;;;;10350499;28;20046;-68
2022/03/26 16:00:18;;;;;;;32.53;17.45;;;;;;;;;;10363831;28;20081;-68
2022/03/26 16:05:22;;;;;;;27.25;15.82;;;;;;;;;;10353038;28;20049;-66
2022/03/26 16:10:24;;;;;;;23.58;14.02;;;;;;;;;;10355179;28;20370;-66
2022/03/26 16:15:27;;;;;;;36.00;17.48;;;;;;;;;;10354883;28;20054;-66
2022/03/26 16:20:32;;;;;;;22.20;14.85;;;;;;;;;;10355230;28;20097;-69
2022/03/26 16:25:34;;;;;;;26.10;15.13;;;;;;;;;;10329738;28;20266;-67
2022/03/26 16:30:37;;;;;;;23.73;12.68;;;;;;;;;;10315048;28;20062;-68
2022/03/26 16:35:41;;;;;;;19.75;11.68;;;;;;;;;;10353746;28;20309;-67
2022/03/26 16:40:44;;;;;;;16.52;11.57;;;;;;;;;;10352639;28;20050;-67
2022/03/26 16:45:46;;;;;;;19.88;11.52;;;;;;;;;;10355363;28;20286;-68
2022/03/26 16:50:50;;;;;;;20.60;11.20;;;;;;;;;;10352653;28;20113;-68
2022/03/26 16:55:52;;;;;;;22.15;11.35;;;;;;;;;;10353285;28;20042;-67
2022/03/26 17:00:54;;;;;;;21.10;10.73;;;;;;;;;;10352190;28;20054;-67
2022/03/26 17:06:00;;;;;;;22.70;11.50;;;;;;;;;;10352128;28;20089;-67
2022/03/26 17:11:02;;;;;;;23.55;11.57;;;;;;;;;;10387234;28;20052;-66
2022/03/26 17:16:06;;;;;;;22.02;16.38;;;;;;;;;;10349922;28;20058;-67
2022/03/26 17:21:10;;;;;;;23.05;11.95;;;;;;;;;;10351805;28;20084;-66
2022/03/26 17:26:14;;;;;;;23.73;13.80;;;;;;;;;;10351269;28;20050;-69
2022/03/26 17:31:17;;;;;;;20.37;3.67;;;;;;;;;;10385118;28;20065;-69
2022/03/26 17:36:22;;;;;;;11.40;2.47;;;;;;;;;;10356743;28;20077;-67
2022/03/26 17:41:24;;;;;;;22.85;3.10;;;;;;;;;;10351847;28;20080;-67
2022/03/26 17:46:26;;;;;;;15.75;2.60;;;;;;;;;;10363103;28;20373;-66
2022/03/26 17:51:30;;;;;;;14.93;3.13;;;;;;;;;;10379946;28;20077;-67
2022/03/26 17:56:33;;;;;;;10.93;3.05;;;;;;;;;;10350237;28;20058;-64
2022/03/26 18:01:35;;;;;;;16.42;2.60;;;;;;;;;;10350971;28;20070;-68
2022/03/26 18:06:41;;;;;;;5.05;2.80;;;;;;;;;;10352016;28;20051;-68
2022/03/26 18:11:43;;;;;;;11.82;2.72;;;;;;;;;;10364507;28;20199;-67
2022/03/26 18:16:46;;;;;;;7.90;2.40;;;;;;;;;;10371686;28;20045;-67
2022/03/26 18:21:50;;;;;;;4.80;1.95;;;;;;;;;;10367303;28;20349;-67
2022/03/26 18:26:52;;;;;;;10.35;2.42;;;;;;;;;;10358324;28;20070;-67
2022/03/26 18:31:55;;;;;;;10.57;3.30;;;;;;;;;;10357917;28;20046;-65
2022/03/26 18:36:59;;;;;;;8.48;2.92;;;;;;;;;;10347385;28;20066;-68
2022/03/26 18:42:02;;;;;;;8.57;3.33;;;;;;;;;;10326783;28;20092;-67
2022/03/26 18:47:08;;;;;;;7.55;3.45;;;;;;;;;;10387158;28;20054;-68
2022/03/26 18:52:13;;;;;;;10.68;4.25;;;;;;;;;;10357432;28;20076;-68
2022/03/26 18:57:18;;;;;;;16.77;4.97;;;;;;;;;;10368727;28;20107;-67
2022/03/26 19:02:20;;;;;;;22.52;7.57;;;;;;;;;;10386915;28;20038;-66
2022/03/26 19:07:24;;;;;;;8.85;4.57;;;;;;;;;;10380078;28;20273;-68
2022/03/26 19:12:26;;;;;;;14.80;4.75;;;;;;;;;;10356040;28;20058;-69
2022/03/26 19:17:29;;;;;;;14.88;4.65;;;;;;;;;;10356184;28;20249;-68
2022/03/26 19:22:32;;;;;;;7.85;4.32;;;;;;;;;;10357343;28;20065;-67
2022/03/26 19:27:34;;;;;;;10.90;4.47;;;;;;;;;;10355296;28;20089;-69
2022/03/26 19:32:38;;;;;;;9.07;3.90;;;;;;;;;;10355610;28;20046;-67
2022/03/26 19:37:43;;;;;;;8.20;4.03;;;;;;;;;;10354021;28;20097;-69
2022/03/26 19:42:46;;;;;;;13.07;4.93;;;;;;;;;;10364800;28;20081;-68
2022/03/26 19:47:48;;;;;;;14.00;4.68;;;;;;;;;;10393537;28;20125;-69
2022/03/26 19:52:52;;;;;;;16.77;5.38;;;;;;;;;;10355603;28;20128;-67
2022/03/26 19:57:54;;;;;;;15.43;5.43;;;;;;;;;;10355691;28;20078;-68
2022/03/26 20:02:56;;;;;;;18.25;5.82;;;;;;;;;;10377536;28;20073;-68
2022/03/26 20:08:00;;;;;;;16.33;5.63;;;;;;;;;;10395837;28;20100;-66
2022/03/26 20:13:02;;;;;;;11.82;4.82;;;;;;;;;;10357030;28;20070;-68
2022/03/26 20:23:26;;;;;;;14.25;5.57;;;;;;;;;;10354783;28;20061;-67
2022/03/26 20:28:28;;;;;;;15.05;5.63;;;;;;;;;;10353583;28;20242;-68
2022/03/26 20:33:31;;;;;;;20.15;7.05;;;;;;;;;;10353657;28;20189;-67
2022/03/26 20:38:37;;;;;;;17.67;6.22;;;;;;;;;;10354224;28;20062;-66
2022/03/26 20:43:39;;;;;;;15.02;5.65;;;;;;;;;;10352369;28;20062;-67
2022/03/26 20:48:41;;;;;;;14.00;5.43;;;;;;;;;;10353993;28;20054;-69
2022/03/26 20:53:45;;;;;;;14.57;4.68;;;;;;;;;;10372969;28;20104;-69
2022/03/26 20:58:47;;;;;;;16.00;5.47;;;;;;;;;;10354601;28;20080;-67
2022/03/26 21:03:50;;;;;;;12.07;5.50;;;;;;;;;;10351959;28;20058;-66
2022/03/26 21:08:53;;;;;;;14.25;5.32;;;;;;;;;;10382683;28;20329;-67
2022/03/26 21:13:55;;;;;;;9.38;4.32;;;;;;;;;;10373803;28;20050;-66
2022/03/26 21:18:58;;;;;;;11.20;5.10;;;;;;;;;;10352506;28;20081;-67
2022/03/26 21:24:02;;;;;;;11.15;5.22;;;;;;;;;;10352451;28;20070;-68
2022/03/26 21:29:05;;;;;;;17.05;4.95;;;;;;;;;;10353246;28;20070;-66
2022/03/26 21:34:08;;;;;;;13.60;5.32;;;;;;;;;;10369158;28;20046;-69
2022/03/26 21:39:13;;;;;;;13.25;4.35;;;;;;;;;;10387255;28;20058;-68
2022/03/26 21:44:15;;;;;;;9.98;4.60;;;;;;;;;;10349695;28;20089;-66
2022/03/26 21:49:17;;;;;;;12.38;5.90;;;;;;;;;;10380567;28;20073;-68
2022/03/26 21:54:21;;;;;;;13.98;5.00;;;;;;;;;;10358695;28;20054;-67
2022/03/26 21:59:23;;;;;;;9.43;4.45;;;;;;;;;;10391673;28;20088;-67
2022/03/26 22:04:26;;;;;;;11.98;4.20;;;;;;;;;;10372420;28;20069;-66
2022/03/26 22:09:29;;;;;;;10.30;4.93;;;;;;;;;;10364645;28;20042;-69
2022/03/26 22:14:32;;;;;;;7.03;3.55;;;;;;;;;;10387491;28;20061;-67
2022/03/26 22:19:34;;;;;;;9.25;3.42;;;;;;;;;;10366878;28;20050;-67
2022/03/26 22:24:38;;;;;;;7.80;4.05;;;;;;;;;;10387666;28;20290;-67
2022/03/26 22:29:41;;;;;;;11.57;3.70;;;;;;;;;;10389152;28;20033;-67
2022/03/26 22:34:43;;;;;;;5.35;3.03;;;;;;;;;;10365624;28;20059;-67
2022/03/26 22:45:08;;;;;;;7.70;3.78;;;;;;;;;;10380836;28;20058;-68
2022/03/26 22:50:11;;;;;;;9.70;4.45;;;;;;;;;;10364402;28;20055;-67
2022/03/26 22:55:16;;;;;;;7.22;3.15;;;;;;;;;;10363355;28;20061;-69
2022/03/26 23:00:54;;;;;;;9.55;3.47;;;;;;;;;;10342616;28;20080;-66
2022/03/26 23:05:56;;;;;;;10.93;3.97;;;;;;;;;;10394309;28;20353;-67
2022/03/26 23:11:00;;;;;;;10.38;4.70;;;;;;;;;;10397863;28;20116;-66
2022/03/26 23:16:03;;;;;;;9.45;3.60;;;;;;;;;;10384222;28;20089;-66
2022/03/26 23:21:06;;;;;;;6.85;3.50;;;;;;;;;;10357501;28;20104;-67
2022/03/26 23:26:09;;;;;;;11.18;4.60;;;;;;;;;;10357998;28;20121;-68
2022/03/26 23:31:12;;;;;;;17.90;8.73;;;;;;;;;;10387333;28;20081;-68
2022/03/26 23:36:14;;;;;;;13.30;6.05;;;;;;;;;;10397011;28;20104;-67
2022/03/26 23:41:19;;;;;;;15.82;7.40;;;;;;;;;;10395962;28;20081;-67
2022/03/26 23:46:23;;;;;;;15.77;5.90;;;;;;;;;;10357468;28;20059;-68
2022/03/26 23:51:25;;;;;;;14.70;5.70;;;;;;;;;;10382957;28;20073;-66
2022/03/26 23:56:29;;;;;;;16.08;5.85;;;;;;;;;;10395609;28;20289;-66
